sensor_id;sensor_type;location;lat;lon;timestamp;P1;durP1;ratioP1;P2;durP2;ratioP2
69240;SDS011;56352;55.750;13.198;2023-05-07T00:00:29;3.60;;;2.10;;
69240;SDS011;56352;55.750;13.198;2023-05-07T00:02:56;6.75;;;2.20;;
69240;SDS011;56352;55.750;13.198;2023-05-07T00:05:22;4.25;;;2.00;;
69240;SDS011;56352;55.750;13.198;2023-05-07T00:07:49;2.35;;;1.60;;
69240;SDS011;56352;55.750;13.198;2023-05-07T00:10:16;5.22;;;2.00;;
69240;SDS011;56352;55.750;13.198;2023-05-07T00:12:42;4.18;;;2.05;;
69240;SDS011;56352;55.750;13.198;2023-05-07T00:15:09;3.28;;;1.80;;
69240;SDS011;56352;55.750;13.198;2023-05-07T00:17:36;3.38;;;1.80;;
69240;SDS011;56352;55.750;13.198;2023-05-07T00:20:03;5.50;;;2.33;;
69240;SDS011;56352;55.750;13.198;2023-05-07T00:22:31;3.13;;;1.75;;
69240;SDS011;56352;55.750;13.198;2023-05-07T00:24:58;4.22;;;2.00;;
69240;SDS011;56352;55.750;13.198;2023-05-07T00:27:25;3.17;;;1.70;;
69240;SDS011;56352;55.750;13.198;2023-05-07T00:29:51;4.50;;;1.88;;
69240;SDS011;56352;55.750;13.198;2023-05-07T00:32:18;4.05;;;2.15;;
69240;SDS011;56352;55.750;13.198;2023-05-07T00:34:44;3.22;;;1.75;;
69240;SDS011;56352;55.750;13.198;2023-05-07T00:37:11;3.83;;;1.92;;
69240;SDS011;56352;55.750;13.198;2023-05-07T00:39:38;5.93;;;1.88;;
69240;SDS011;56352;55.750;13.198;2023-05-07T00:42:04;5.07;;;1.98;;
69240;SDS011;56352;55.750;13.198;2023-05-07T00:44:31;6.00;;;2.25;;
69240;SDS011;56352;55.750;13.198;2023-05-07T00:46:57;3.53;;;1.77;;
69240;SDS011;56352;55.750;13.198;2023-05-07T00:49:32;4.35;;;1.88;;
69240;SDS011;56352;55.750;13.198;2023-05-07T00:52:01;4.97;;;2.15;;
69240;SDS011;56352;55.750;13.198;2023-05-07T00:54:27;3.92;;;1.98;;
69240;SDS011;56352;55.750;13.198;2023-05-07T00:56:54;3.05;;;2.38;;
69240;SDS011;56352;55.750;13.198;2023-05-07T00:59:21;3.65;;;1.70;;
69240;SDS011;56352;55.750;13.198;2023-05-07T01:01:47;2.90;;;1.70;;
69240;SDS011;56352;55.750;13.198;2023-05-07T01:04:14;4.55;;;1.90;;
69240;SDS011;56352;55.750;13.198;2023-05-07T01:06:41;6.30;;;1.75;;
69240;SDS011;56352;55.750;13.198;2023-05-07T01:09:09;5.35;;;1.85;;
69240;SDS011;56352;55.750;13.198;2023-05-07T01:11:35;2.53;;;1.80;;
69240;SDS011;56352;55.750;13.198;2023-05-07T01:14:02;3.33;;;1.63;;
69240;SDS011;56352;55.750;13.198;2023-05-07T01:16:29;3.78;;;1.65;;
69240;SDS011;56352;55.750;13.198;2023-05-07T01:18:56;3.25;;;1.83;;
69240;SDS011;56352;55.750;13.198;2023-05-07T01:21:24;2.25;;;1.83;;
69240;SDS011;56352;55.750;13.198;2023-05-07T01:23:53;4.53;;;1.92;;
69240;SDS011;56352;55.750;13.198;2023-05-07T01:26:21;3.65;;;2.00;;
69240;SDS011;56352;55.750;13.198;2023-05-07T01:28:52;2.90;;;1.80;;
69240;SDS011;56352;55.750;13.198;2023-05-07T01:31:19;3.95;;;1.80;;
69240;SDS011;56352;55.750;13.198;2023-05-07T01:33:45;3.00;;;1.75;;
69240;SDS011;56352;55.750;13.198;2023-05-07T01:36:14;3.35;;;1.75;;
69240;SDS011;56352;55.750;13.198;2023-05-07T01:38:41;2.55;;;1.80;;
69240;SDS011;56352;55.750;13.198;2023-05-07T01:41:08;1.92;;;1.70;;
69240;SDS011;56352;55.750;13.198;2023-05-07T01:43:34;2.33;;;1.40;;
69240;SDS011;56352;55.750;13.198;2023-05-07T01:46:02;4.57;;;1.90;;
69240;SDS011;56352;55.750;13.198;2023-05-07T01:48:29;2.88;;;1.45;;
69240;SDS011;56352;55.750;13.198;2023-05-07T01:50:56;4.10;;;2.17;;
69240;SDS011;56352;55.750;13.198;2023-05-07T01:53:22;2.90;;;1.70;;
69240;SDS011;56352;55.750;13.198;2023-05-07T01:55:49;2.67;;;1.80;;
69240;SDS011;56352;55.750;13.198;2023-05-07T01:58:15;3.83;;;1.60;;
69240;SDS011;56352;55.750;13.198;2023-05-07T02:00:43;3.25;;;1.73;;
69240;SDS011;56352;55.750;13.198;2023-05-07T02:03:09;4.60;;;2.00;;
69240;SDS011;56352;55.750;13.198;2023-05-07T02:05:36;5.80;;;2.00;;
69240;SDS011;56352;55.750;13.198;2023-05-07T02:08:03;2.95;;;1.67;;
69240;SDS011;56352;55.750;13.198;2023-05-07T02:10:29;3.53;;;1.75;;
69240;SDS011;56352;55.750;13.198;2023-05-07T02:12:56;3.17;;;1.77;;
69240;SDS011;56352;55.750;13.198;2023-05-07T02:15:23;2.58;;;1.55;;
69240;SDS011;56352;55.750;13.198;2023-05-07T02:17:59;3.88;;;1.75;;
69240;SDS011;56352;55.750;13.198;2023-05-07T02:20:27;2.42;;;1.83;;
69240;SDS011;56352;55.750;13.198;2023-05-07T02:22:53;5.53;;;2.00;;
69240;SDS011;56352;55.750;13.198;2023-05-07T02:25:20;4.38;;;2.05;;
69240;SDS011;56352;55.750;13.198;2023-05-07T02:27:46;4.20;;;1.63;;
69240;SDS011;56352;55.750;13.198;2023-05-07T02:30:13;5.47;;;1.63;;
69240;SDS011;56352;55.750;13.198;2023-05-07T02:32:40;3.78;;;1.58;;
69240;SDS011;56352;55.750;13.198;2023-05-07T02:35:07;2.60;;;1.60;;
69240;SDS011;56352;55.750;13.198;2023-05-07T02:37:33;5.28;;;2.10;;
69240;SDS011;56352;55.750;13.198;2023-05-07T02:40:01;2.92;;;1.85;;
69240;SDS011;56352;55.750;13.198;2023-05-07T02:42:29;3.17;;;1.70;;
69240;SDS011;56352;55.750;13.198;2023-05-07T02:44:56;3.60;;;2.00;;
69240;SDS011;56352;55.750;13.198;2023-05-07T02:47:23;7.05;;;2.10;;
69240;SDS011;56352;55.750;13.198;2023-05-07T02:49:49;3.67;;;1.67;;
69240;SDS011;56352;55.750;13.198;2023-05-07T02:52:15;4.25;;;2.08;;
69240;SDS011;56352;55.750;13.198;2023-05-07T02:54:42;3.35;;;2.15;;
69240;SDS011;56352;55.750;13.198;2023-05-07T02:57:09;4.70;;;1.60;;
69240;SDS011;56352;55.750;13.198;2023-05-07T02:59:35;2.53;;;1.35;;
69240;SDS011;56352;55.750;13.198;2023-05-07T03:02:02;5.18;;;1.80;;
69240;SDS011;56352;55.750;13.198;2023-05-07T03:04:28;4.57;;;1.83;;
69240;SDS011;56352;55.750;13.198;2023-05-07T03:06:55;3.40;;;1.77;;
69240;SDS011;56352;55.750;13.198;2023-05-07T03:09:22;3.08;;;1.65;;
69240;SDS011;56352;55.750;13.198;2023-05-07T03:11:49;2.50;;;1.50;;
69240;SDS011;56352;55.750;13.198;2023-05-07T03:14:15;3.40;;;1.83;;
69240;SDS011;56352;55.750;13.198;2023-05-07T03:16:42;2.30;;;1.80;;
69240;SDS011;56352;55.750;13.198;2023-05-07T03:19:08;4.68;;;1.83;;
69240;SDS011;56352;55.750;13.198;2023-05-07T03:21:35;3.72;;;1.98;;
69240;SDS011;56352;55.750;13.198;2023-05-07T03:24:01;5.75;;;1.65;;
69240;SDS011;56352;55.750;13.198;2023-05-07T03:26:28;4.72;;;1.92;;
69240;SDS011;56352;55.750;13.198;2023-05-07T03:28:54;4.63;;;1.83;;
69240;SDS011;56352;55.750;13.198;2023-05-07T03:31:22;3.00;;;1.50;;
69240;SDS011;56352;55.750;13.198;2023-05-07T03:33:50;2.60;;;1.70;;
69240;SDS011;56352;55.750;13.198;2023-05-07T03:36:17;3.53;;;1.60;;
69240;SDS011;56352;55.750;13.198;2023-05-07T03:38:44;4.53;;;2.47;;
69240;SDS011;56352;55.750;13.198;2023-05-07T03:41:11;3.83;;;1.38;;
69240;SDS011;56352;55.750;13.198;2023-05-07T03:43:37;5.30;;;1.83;;
69240;SDS011;56352;55.750;13.198;2023-05-07T03:46:04;3.28;;;1.50;;
69240;SDS011;56352;55.750;13.198;2023-05-07T03:48:30;3.90;;;1.40;;
69240;SDS011;56352;55.750;13.198;2023-05-07T03:50:57;3.17;;;1.73;;
69240;SDS011;56352;55.750;13.198;2023-05-07T03:53:24;2.42;;;1.23;;
69240;SDS011;56352;55.750;13.198;2023-05-07T03:55:50;3.95;;;1.90;;
69240;SDS011;56352;55.750;13.198;2023-05-07T03:58:17;5.68;;;1.73;;
69240;SDS011;56352;55.750;13.198;2023-05-07T04:00:43;2.97;;;1.65;;
69240;SDS011;56352;55.750;13.198;2023-05-07T04:03:10;2.70;;;1.60;;
69240;SDS011;56352;55.750;13.198;2023-05-07T04:05:36;5.55;;;1.88;;
69240;SDS011;56352;55.750;13.198;2023-05-07T04:08:03;3.97;;;1.60;;
69240;SDS011;56352;55.750;13.198;2023-05-07T04:10:30;3.97;;;2.05;;
69240;SDS011;56352;55.750;13.198;2023-05-07T04:12:56;3.58;;;1.50;;
69240;SDS011;56352;55.750;13.198;2023-05-07T04:15:23;2.50;;;1.50;;
69240;SDS011;56352;55.750;13.198;2023-05-07T04:17:50;2.72;;;1.70;;
69240;SDS011;56352;55.750;13.198;2023-05-07T04:20:17;3.90;;;1.92;;
69240;SDS011;56352;55.750;13.198;2023-05-07T04:22:44;2.45;;;1.83;;
69240;SDS011;56352;55.750;13.198;2023-05-07T04:25:10;2.28;;;1.70;;
69240;SDS011;56352;55.750;13.198;2023-05-07T04:27:37;3.80;;;1.73;;
69240;SDS011;56352;55.750;13.198;2023-05-07T04:30:04;2.78;;;1.55;;
69240;SDS011;56352;55.750;13.198;2023-05-07T04:32:30;3.88;;;1.90;;
69240;SDS011;56352;55.750;13.198;2023-05-07T04:34:58;3.20;;;1.80;;
69240;SDS011;56352;55.750;13.198;2023-05-07T04:37:25;3.45;;;1.63;;
69240;SDS011;56352;55.750;13.198;2023-05-07T04:39:51;5.50;;;1.70;;
69240;SDS011;56352;55.750;13.198;2023-05-07T04:42:18;4.93;;;2.30;;
69240;SDS011;56352;55.750;13.198;2023-05-07T04:44:45;3.85;;;1.70;;
69240;SDS011;56352;55.750;13.198;2023-05-07T04:47:13;4.20;;;1.90;;
69240;SDS011;56352;55.750;13.198;2023-05-07T04:49:40;4.75;;;2.22;;
69240;SDS011;56352;55.750;13.198;2023-05-07T04:52:06;4.78;;;1.67;;
69240;SDS011;56352;55.750;13.198;2023-05-07T04:54:33;3.28;;;1.77;;
69240;SDS011;56352;55.750;13.198;2023-05-07T04:56:59;5.40;;;2.33;;
69240;SDS011;56352;55.750;13.198;2023-05-07T04:59:26;3.78;;;1.60;;
69240;SDS011;56352;55.750;13.198;2023-05-07T05:01:52;2.30;;;1.75;;
69240;SDS011;56352;55.750;13.198;2023-05-07T05:04:19;2.35;;;1.80;;
69240;SDS011;56352;55.750;13.198;2023-05-07T05:06:45;2.92;;;1.73;;
69240;SDS011;56352;55.750;13.198;2023-05-07T05:09:12;3.40;;;1.80;;
69240;SDS011;56352;55.750;13.198;2023-05-07T05:11:39;4.53;;;1.42;;
69240;SDS011;56352;55.750;13.198;2023-05-07T05:14:05;3.72;;;1.67;;
69240;SDS011;56352;55.750;13.198;2023-05-07T05:16:32;2.80;;;2.15;;
69240;SDS011;56352;55.750;13.198;2023-05-07T05:18:59;1.88;;;1.50;;
69240;SDS011;56352;55.750;13.198;2023-05-07T05:21:26;6.15;;;1.70;;
69240;SDS011;56352;55.750;13.198;2023-05-07T05:23:52;1.80;;;1.50;;
69240;SDS011;56352;55.750;13.198;2023-05-07T05:26:19;3.45;;;1.50;;
69240;SDS011;56352;55.750;13.198;2023-05-07T05:28:47;3.75;;;1.63;;
69240;SDS011;56352;55.750;13.198;2023-05-07T05:31:13;4.47;;;2.00;;
69240;SDS011;56352;55.750;13.198;2023-05-07T05:33:40;4.63;;;1.60;;
69240;SDS011;56352;55.750;13.198;2023-05-07T05:36:09;3.53;;;1.48;;
69240;SDS011;56352;55.750;13.198;2023-05-07T05:38:36;3.35;;;1.63;;
69240;SDS011;56352;55.750;13.198;2023-05-07T05:41:02;6.13;;;1.80;;
69240;SDS011;56352;55.750;13.198;2023-05-07T05:43:29;2.55;;;1.23;;
69240;SDS011;56352;55.750;13.198;2023-05-07T05:45:56;3.30;;;1.45;;
69240;SDS011;56352;55.750;13.198;2023-05-07T05:48:23;2.70;;;1.60;;
69240;SDS011;56352;55.750;13.198;2023-05-07T05:50:49;4.15;;;1.77;;
69240;SDS011;56352;55.750;13.198;2023-05-07T05:53:16;4.65;;;1.73;;
69240;SDS011;56352;55.750;13.198;2023-05-07T05:55:43;5.88;;;2.08;;
69240;SDS011;56352;55.750;13.198;2023-05-07T05:58:10;2.78;;;1.30;;
69240;SDS011;56352;55.750;13.198;2023-05-07T06:00:36;1.88;;;1.50;;
69240;SDS011;56352;55.750;13.198;2023-05-07T06:03:03;3.50;;;1.55;;
69240;SDS011;56352;55.750;13.198;2023-05-07T06:05:29;3.97;;;1.42;;
69240;SDS011;56352;55.750;13.198;2023-05-07T06:07:56;4.72;;;1.80;;
69240;SDS011;56352;55.750;13.198;2023-05-07T06:10:22;3.08;;;2.03;;
69240;SDS011;56352;55.750;13.198;2023-05-07T06:12:50;5.22;;;1.60;;
69240;SDS011;56352;55.750;13.198;2023-05-07T06:15:17;3.80;;;1.50;;
69240;SDS011;56352;55.750;13.198;2023-05-07T06:17:43;3.00;;;1.77;;
69240;SDS011;56352;55.750;13.198;2023-05-07T06:20:10;4.28;;;1.88;;
69240;SDS011;56352;55.750;13.198;2023-05-07T06:22:37;3.60;;;1.58;;
69240;SDS011;56352;55.750;13.198;2023-05-07T06:25:04;3.33;;;1.40;;
69240;SDS011;56352;55.750;13.198;2023-05-07T06:27:31;3.25;;;1.85;;
69240;SDS011;56352;55.750;13.198;2023-05-07T06:29:57;3.28;;;1.58;;
69240;SDS011;56352;55.750;13.198;2023-05-07T06:32:24;4.78;;;1.63;;
69240;SDS011;56352;55.750;13.198;2023-05-07T06:34:50;5.07;;;1.70;;
69240;SDS011;56352;55.750;13.198;2023-05-07T06:37:17;3.10;;;1.50;;
69240;SDS011;56352;55.750;13.198;2023-05-07T06:39:44;3.15;;;1.50;;
69240;SDS011;56352;55.750;13.198;2023-05-07T06:42:10;2.35;;;1.40;;
69240;SDS011;56352;55.750;13.198;2023-05-07T06:44:37;3.60;;;1.90;;
69240;SDS011;56352;55.750;13.198;2023-05-07T06:47:04;3.00;;;1.42;;
69240;SDS011;56352;55.750;13.198;2023-05-07T06:49:31;4.40;;;1.40;;
69240;SDS011;56352;55.750;13.198;2023-05-07T06:51:58;3.10;;;1.30;;
69240;SDS011;56352;55.750;13.198;2023-05-07T06:54:25;3.97;;;1.85;;
69240;SDS011;56352;55.750;13.198;2023-05-07T06:56:51;2.63;;;1.33;;
69240;SDS011;56352;55.750;13.198;2023-05-07T06:59:18;2.85;;;1.50;;
69240;SDS011;56352;55.750;13.198;2023-05-07T07:01:45;3.35;;;1.70;;
69240;SDS011;56352;55.750;13.198;2023-05-07T07:04:12;3.88;;;1.70;;
69240;SDS011;56352;55.750;13.198;2023-05-07T07:06:38;6.78;;;2.00;;
69240;SDS011;56352;55.750;13.198;2023-05-07T07:09:05;2.95;;;1.60;;
69240;SDS011;56352;55.750;13.198;2023-05-07T07:11:32;2.30;;;1.50;;
69240;SDS011;56352;55.750;13.198;2023-05-07T07:13:58;5.50;;;2.00;;
69240;SDS011;56352;55.750;13.198;2023-05-07T07:16:25;4.95;;;1.85;;
69240;SDS011;56352;55.750;13.198;2023-05-07T07:18:52;3.70;;;1.90;;
69240;SDS011;56352;55.750;13.198;2023-05-07T07:21:18;3.90;;;1.77;;
69240;SDS011;56352;55.750;13.198;2023-05-07T07:23:45;4.05;;;2.03;;
69240;SDS011;56352;55.750;13.198;2023-05-07T07:26:11;3.03;;;1.77;;
69240;SDS011;56352;55.750;13.198;2023-05-07T07:28:44;3.05;;;1.50;;
69240;SDS011;56352;55.750;13.198;2023-05-07T07:31:11;3.08;;;1.50;;
69240;SDS011;56352;55.750;13.198;2023-05-07T07:33:38;2.45;;;1.50;;
69240;SDS011;56352;55.750;13.198;2023-05-07T07:36:05;6.70;;;1.90;;
69240;SDS011;56352;55.750;13.198;2023-05-07T07:38:32;2.58;;;1.77;;
69240;SDS011;56352;55.750;13.198;2023-05-07T07:40:59;3.55;;;1.75;;
69240;SDS011;56352;55.750;13.198;2023-05-07T07:43:26;2.65;;;1.40;;
69240;SDS011;56352;55.750;13.198;2023-05-07T07:45:52;3.40;;;1.90;;
69240;SDS011;56352;55.750;13.198;2023-05-07T07:48:19;2.80;;;1.80;;
69240;SDS011;56352;55.750;13.198;2023-05-07T07:50:48;3.35;;;1.52;;
69240;SDS011;56352;55.750;13.198;2023-05-07T07:53:14;1.98;;;1.73;;
69240;SDS011;56352;55.750;13.198;2023-05-07T07:55:41;3.38;;;1.77;;
69240;SDS011;56352;55.750;13.198;2023-05-07T07:58:08;3.67;;;1.80;;
69240;SDS011;56352;55.750;13.198;2023-05-07T08:00:34;3.38;;;1.73;;
69240;SDS011;56352;55.750;13.198;2023-05-07T08:03:01;4.97;;;1.88;;
69240;SDS011;56352;55.750;13.198;2023-05-07T08:05:29;3.45;;;1.88;;
69240;SDS011;56352;55.750;13.198;2023-05-07T08:07:56;3.50;;;1.60;;
69240;SDS011;56352;55.750;13.198;2023-05-07T08:12:54;2.22;;;1.60;;
69240;SDS011;56352;55.750;13.198;2023-05-07T08:15:21;2.95;;;1.85;;
69240;SDS011;56352;55.750;13.198;2023-05-07T08:17:50;3.67;;;1.55;;
69240;SDS011;56352;55.750;13.198;2023-05-07T08:20:17;3.20;;;1.73;;
69240;SDS011;56352;55.750;13.198;2023-05-07T08:22:44;3.13;;;1.60;;
69240;SDS011;56352;55.750;13.198;2023-05-07T08:25:10;2.17;;;1.48;;
69240;SDS011;56352;55.750;13.198;2023-05-07T08:27:37;3.63;;;2.00;;
69240;SDS011;56352;55.750;13.198;2023-05-07T08:30:06;3.53;;;1.67;;
69240;SDS011;56352;55.750;13.198;2023-05-07T08:32:33;2.67;;;1.60;;
69240;SDS011;56352;55.750;13.198;2023-05-07T08:35:00;5.03;;;2.17;;
69240;SDS011;56352;55.750;13.198;2023-05-07T08:37:27;3.30;;;1.85;;
69240;SDS011;56352;55.750;13.198;2023-05-07T08:39:53;4.22;;;1.83;;
69240;SDS011;56352;55.750;13.198;2023-05-07T08:42:20;3.95;;;2.15;;
69240;SDS011;56352;55.750;13.198;2023-05-07T08:44:48;2.97;;;1.90;;
69240;SDS011;56352;55.750;13.198;2023-05-07T08:47:19;3.67;;;1.90;;
69240;SDS011;56352;55.750;13.198;2023-05-07T08:49:47;3.13;;;1.88;;
69240;SDS011;56352;55.750;13.198;2023-05-07T08:52:14;4.05;;;2.08;;
69240;SDS011;56352;55.750;13.198;2023-05-07T08:54:41;3.60;;;2.20;;
69240;SDS011;56352;55.750;13.198;2023-05-07T08:57:07;3.05;;;2.22;;
69240;SDS011;56352;55.750;13.198;2023-05-07T08:59:34;4.15;;;1.80;;
69240;SDS011;56352;55.750;13.198;2023-05-07T09:02:03;2.30;;;1.90;;
69240;SDS011;56352;55.750;13.198;2023-05-07T09:04:29;4.43;;;2.00;;
69240;SDS011;56352;55.750;13.198;2023-05-07T09:06:58;2.63;;;2.00;;
69240;SDS011;56352;55.750;13.198;2023-05-07T09:09:30;5.32;;;2.00;;
69240;SDS011;56352;55.750;13.198;2023-05-07T09:11:58;3.03;;;2.10;;
69240;SDS011;56352;55.750;13.198;2023-05-07T09:14:28;3.05;;;2.00;;
69240;SDS011;56352;55.750;13.198;2023-05-07T09:16:55;3.05;;;1.98;;
69240;SDS011;56352;55.750;13.198;2023-05-07T09:19:24;3.55;;;2.40;;
69240;SDS011;56352;55.750;13.198;2023-05-07T09:22:00;4.57;;;2.05;;
69240;SDS011;56352;55.750;13.198;2023-05-07T09:24:28;2.80;;;1.90;;
69240;SDS011;56352;55.750;13.198;2023-05-07T09:27:03;2.75;;;2.03;;
69240;SDS011;56352;55.750;13.198;2023-05-07T09:29:30;2.38;;;1.80;;
69240;SDS011;56352;55.750;13.198;2023-05-07T09:32:01;3.20;;;2.22;;
69240;SDS011;56352;55.750;13.198;2023-05-07T09:34:29;4.72;;;2.00;;
69240;SDS011;56352;55.750;13.198;2023-05-07T09:36:58;3.73;;;1.83;;
69240;SDS011;56352;55.750;13.198;2023-05-07T09:39:25;4.22;;;2.10;;
69240;SDS011;56352;55.750;13.198;2023-05-07T09:41:52;3.22;;;1.95;;
69240;SDS011;56352;55.750;13.198;2023-05-07T09:44:21;3.33;;;1.90;;
69240;SDS011;56352;55.750;13.198;2023-05-07T09:46:52;3.00;;;1.90;;
69240;SDS011;56352;55.750;13.198;2023-05-07T09:49:23;5.60;;;2.20;;
69240;SDS011;56352;55.750;13.198;2023-05-07T09:51:50;2.60;;;2.00;;
69240;SDS011;56352;55.750;13.198;2023-05-07T09:54:18;5.38;;;2.20;;
69240;SDS011;56352;55.750;13.198;2023-05-07T09:56:44;5.90;;;2.10;;
69240;SDS011;56352;55.750;13.198;2023-05-07T09:59:12;2.75;;;1.88;;
69240;SDS011;56352;55.750;13.198;2023-05-07T10:01:40;3.42;;;2.10;;
69240;SDS011;56352;55.750;13.198;2023-05-07T10:04:07;2.22;;;1.95;;
69240;SDS011;56352;55.750;13.198;2023-05-07T10:06:37;3.28;;;1.90;;
69240;SDS011;56352;55.750;13.198;2023-05-07T10:09:04;3.42;;;1.95;;
69240;SDS011;56352;55.750;13.198;2023-05-07T10:11:34;4.20;;;1.90;;
69240;SDS011;56352;55.750;13.198;2023-05-07T10:14:02;3.35;;;2.65;;
69240;SDS011;56352;55.750;13.198;2023-05-07T10:16:33;3.50;;;2.22;;
69240;SDS011;56352;55.750;13.198;2023-05-07T10:19:04;3.15;;;1.80;;
69240;SDS011;56352;55.750;13.198;2023-05-07T10:21:33;3.03;;;2.13;;
69240;SDS011;56352;55.750;13.198;2023-05-07T10:24:20;4.20;;;2.00;;
69240;SDS011;56352;55.750;13.198;2023-05-07T10:26:48;3.20;;;2.20;;
69240;SDS011;56352;55.750;13.198;2023-05-07T10:31:59;3.28;;;2.08;;
69240;SDS011;56352;55.750;13.198;2023-05-07T10:34:35;7.50;;;2.10;;
69240;SDS011;56352;55.750;13.198;2023-05-07T10:37:03;5.35;;;2.30;;
69240;SDS011;56352;55.750;13.198;2023-05-07T10:39:30;4.15;;;2.10;;
69240;SDS011;56352;55.750;13.198;2023-05-07T10:41:56;7.63;;;2.22;;
69240;SDS011;56352;55.750;13.198;2023-05-07T10:44:26;3.40;;;2.00;;
69240;SDS011;56352;55.750;13.198;2023-05-07T10:47:28;2.13;;;1.92;;
69240;SDS011;56352;55.750;13.198;2023-05-07T10:54:42;3.60;;;2.00;;
69240;SDS011;56352;55.750;13.198;2023-05-07T10:59:55;2.85;;;2.08;;
69240;SDS011;56352;55.750;13.198;2023-05-07T11:02:42;2.60;;;2.00;;
69240;SDS011;56352;55.750;13.198;2023-05-07T11:05:20;4.68;;;2.00;;
69240;SDS011;56352;55.750;13.198;2023-05-07T11:07:53;2.50;;;1.92;;
69240;SDS011;56352;55.750;13.198;2023-05-07T11:10:20;4.03;;;2.13;;
69240;SDS011;56352;55.750;13.198;2023-05-07T11:12:47;2.47;;;1.98;;
69240;SDS011;56352;55.750;13.198;2023-05-07T11:15:14;5.82;;;2.03;;
69240;SDS011;56352;55.750;13.198;2023-05-07T11:17:56;3.78;;;2.38;;
69240;SDS011;56352;55.750;13.198;2023-05-07T11:26:08;2.17;;;1.98;;
69240;SDS011;56352;55.750;13.198;2023-05-07T11:28:38;2.22;;;1.85;;
69240;SDS011;56352;55.750;13.198;2023-05-07T11:31:05;3.65;;;2.20;;
69240;SDS011;56352;55.750;13.198;2023-05-07T11:33:32;3.13;;;2.20;;
69240;SDS011;56352;55.750;13.198;2023-05-07T11:35:59;3.53;;;2.00;;
69240;SDS011;56352;55.750;13.198;2023-05-07T11:38:26;4.90;;;2.30;;
69240;SDS011;56352;55.750;13.198;2023-05-07T11:40:53;2.67;;;2.00;;
69240;SDS011;56352;55.750;13.198;2023-05-07T11:43:19;4.78;;;2.05;;
69240;SDS011;56352;55.750;13.198;2023-05-07T11:45:48;3.90;;;2.20;;
69240;SDS011;56352;55.750;13.198;2023-05-07T11:48:15;5.83;;;2.20;;
69240;SDS011;56352;55.750;13.198;2023-05-07T11:50:52;3.38;;;1.90;;
69240;SDS011;56352;55.750;13.198;2023-05-07T11:53:24;2.83;;;2.10;;
69240;SDS011;56352;55.750;13.198;2023-05-07T11:55:57;2.65;;;2.20;;
69240;SDS011;56352;55.750;13.198;2023-05-07T11:58:24;2.53;;;2.03;;
69240;SDS011;56352;55.750;13.198;2023-05-07T12:00:52;2.92;;;1.92;;
69240;SDS011;56352;55.750;13.198;2023-05-07T12:03:19;4.20;;;1.93;;
69240;SDS011;56352;55.750;13.198;2023-05-07T12:05:46;2.90;;;2.28;;
69240;SDS011;56352;55.750;13.198;2023-05-07T12:08:17;4.07;;;2.40;;
69240;SDS011;56352;55.750;13.198;2023-05-07T12:10:44;2.67;;;2.00;;
69240;SDS011;56352;55.750;13.198;2023-05-07T12:13:18;5.15;;;2.20;;
69240;SDS011;56352;55.750;13.198;2023-05-07T12:15:45;3.33;;;2.10;;
69240;SDS011;56352;55.750;13.198;2023-05-07T12:18:12;3.15;;;2.08;;
69240;SDS011;56352;55.750;13.198;2023-05-07T12:20:39;4.22;;;2.35;;
69240;SDS011;56352;55.750;13.198;2023-05-07T12:23:08;4.30;;;2.30;;
69240;SDS011;56352;55.750;13.198;2023-05-07T12:25:35;3.15;;;2.47;;
69240;SDS011;56352;55.750;13.198;2023-05-07T12:28:03;3.55;;;2.22;;
69240;SDS011;56352;55.750;13.198;2023-05-07T12:30:37;2.58;;;2.28;;
69240;SDS011;56352;55.750;13.198;2023-05-07T12:33:05;3.55;;;2.42;;
69240;SDS011;56352;55.750;13.198;2023-05-07T12:35:32;3.13;;;2.17;;
69240;SDS011;56352;55.750;13.198;2023-05-07T12:38:01;2.55;;;2.35;;
69240;SDS011;56352;55.750;13.198;2023-05-07T12:40:53;3.17;;;2.53;;
69240;SDS011;56352;55.750;13.198;2023-05-07T12:45:44;3.17;;;2.40;;
69240;SDS011;56352;55.750;13.198;2023-05-07T12:48:11;3.25;;;2.45;;
69240;SDS011;56352;55.750;13.198;2023-05-07T12:50:37;5.32;;;2.83;;
69240;SDS011;56352;55.750;13.198;2023-05-07T12:53:04;2.83;;;2.50;;
69240;SDS011;56352;55.750;13.198;2023-05-07T12:55:41;3.17;;;2.40;;
69240;SDS011;56352;55.750;13.198;2023-05-07T12:58:14;3.47;;;2.83;;
69240;SDS011;56352;55.750;13.198;2023-05-07T13:00:40;2.90;;;2.70;;
69240;SDS011;56352;55.750;13.198;2023-05-07T13:03:07;3.33;;;2.50;;
69240;SDS011;56352;55.750;13.198;2023-05-07T13:05:34;3.00;;;2.20;;
69240;SDS011;56352;55.750;13.198;2023-05-07T13:08:01;2.67;;;2.20;;
69240;SDS011;56352;55.750;13.198;2023-05-07T13:10:27;3.10;;;2.80;;
69240;SDS011;56352;55.750;13.198;2023-05-07T13:15:21;3.17;;;2.50;;
69240;SDS011;56352;55.750;13.198;2023-05-07T13:17:48;2.90;;;2.60;;
69240;SDS011;56352;55.750;13.198;2023-05-07T13:20:15;4.07;;;2.53;;
69240;SDS011;56352;55.750;13.198;2023-05-07T13:22:41;3.47;;;2.90;;
69240;SDS011;56352;55.750;13.198;2023-05-07T13:25:08;3.80;;;3.23;;
69240;SDS011;56352;55.750;13.198;2023-05-07T13:27:35;4.60;;;2.85;;
69240;SDS011;56352;55.750;13.198;2023-05-07T13:30:03;3.45;;;2.58;;
69240;SDS011;56352;55.750;13.198;2023-05-07T13:32:30;4.22;;;2.50;;
69240;SDS011;56352;55.750;13.198;2023-05-07T13:34:57;2.85;;;2.55;;
69240;SDS011;56352;55.750;13.198;2023-05-07T13:37:24;3.40;;;2.70;;
69240;SDS011;56352;55.750;13.198;2023-05-07T13:39:50;2.70;;;2.50;;
69240;SDS011;56352;55.750;13.198;2023-05-07T13:42:17;2.60;;;2.30;;
69240;SDS011;56352;55.750;13.198;2023-05-07T13:44:43;4.25;;;2.65;;
69240;SDS011;56352;55.750;13.198;2023-05-07T13:47:10;5.07;;;3.03;;
69240;SDS011;56352;55.750;13.198;2023-05-07T13:49:37;3.90;;;2.47;;
69240;SDS011;56352;55.750;13.198;2023-05-07T13:52:03;4.47;;;2.40;;
69240;SDS011;56352;55.750;13.198;2023-05-07T13:54:30;4.82;;;3.47;;
69240;SDS011;56352;55.750;13.198;2023-05-07T13:56:56;3.03;;;2.73;;
69240;SDS011;56352;55.750;13.198;2023-05-07T13:59:23;3.13;;;2.60;;
69240;SDS011;56352;55.750;13.198;2023-05-07T14:01:49;5.43;;;4.70;;
69240;SDS011;56352;55.750;13.198;2023-05-07T14:04:16;4.10;;;3.07;;
69240;SDS011;56352;55.750;13.198;2023-05-07T14:06:43;4.93;;;2.78;;
69240;SDS011;56352;55.750;13.198;2023-05-07T14:09:09;3.07;;;2.57;;
69240;SDS011;56352;55.750;13.198;2023-05-07T14:11:38;3.88;;;2.50;;
69240;SDS011;56352;55.750;13.198;2023-05-07T14:14:05;3.15;;;2.80;;
69240;SDS011;56352;55.750;13.198;2023-05-07T14:16:32;2.87;;;2.67;;
69240;SDS011;56352;55.750;13.198;2023-05-07T14:18:58;4.70;;;2.90;;
69240;SDS011;56352;55.750;13.198;2023-05-07T14:21:25;3.30;;;2.87;;
69240;SDS011;56352;55.750;13.198;2023-05-07T14:23:52;3.80;;;2.80;;
69240;SDS011;56352;55.750;13.198;2023-05-07T14:26:18;3.13;;;2.83;;
69240;SDS011;56352;55.750;13.198;2023-05-07T14:28:46;3.88;;;2.75;;
69240;SDS011;56352;55.750;13.198;2023-05-07T14:31:12;3.30;;;2.70;;
69240;SDS011;56352;55.750;13.198;2023-05-07T14:33:39;5.93;;;2.83;;
69240;SDS011;56352;55.750;13.198;2023-05-07T14:36:07;5.07;;;3.00;;
69240;SDS011;56352;55.750;13.198;2023-05-07T14:38:34;4.30;;;2.72;;
69240;SDS011;56352;55.750;13.198;2023-05-07T14:41:00;6.60;;;3.23;;
69240;SDS011;56352;55.750;13.198;2023-05-07T14:43:27;4.35;;;3.13;;
69240;SDS011;56352;55.750;13.198;2023-05-07T14:45:53;3.42;;;2.70;;
69240;SDS011;56352;55.750;13.198;2023-05-07T14:48:20;4.90;;;3.00;;
69240;SDS011;56352;55.750;13.198;2023-05-07T14:50:47;8.27;;;3.13;;
69240;SDS011;56352;55.750;13.198;2023-05-07T14:53:15;2.85;;;2.47;;
69240;SDS011;56352;55.750;13.198;2023-05-07T14:55:41;3.72;;;2.97;;
69240;SDS011;56352;55.750;13.198;2023-05-07T14:58:08;3.10;;;2.80;;